createdAt,value
2023-02-09T00:01:32.697Z,-3.40
2023-02-09T00:04:03.264Z,-3.46
2023-02-09T00:06:31.339Z,-3.45
2023-02-09T00:08:59.312Z,-3.46
2023-02-09T00:11:42.787Z,-3.45
2023-02-09T00:14:12.525Z,-3.50
2023-02-09T00:16:40.457Z,-3.45
2023-02-09T00:19:08.698Z,-3.50
2023-02-09T00:21:37.280Z,-3.56
2023-02-09T00:24:05.824Z,-3.57
2023-02-09T00:26:33.843Z,-3.55
2023-02-09T00:29:01.800Z,-3.53
2023-02-09T00:31:31.108Z,-3.53
2023-02-09T00:33:59.400Z,-3.51
2023-02-09T00:36:28.709Z,-3.54
2023-02-09T00:38:56.724Z,-3.54
2023-02-09T00:41:38.485Z,-3.56
2023-02-09T00:44:06.515Z,-3.45
2023-02-09T00:46:35.687Z,-3.54
2023-02-09T00:49:03.338Z,-3.59
2023-02-09T00:51:31.009Z,-3.58
2023-02-09T00:53:58.649Z,-3.59
2023-02-09T00:56:27.275Z,-3.59
2023-02-09T00:58:59.699Z,-3.64
2023-02-09T01:01:27.405Z,-3.66
2023-02-09T01:03:57.370Z,-3.64
2023-02-09T01:06:25.696Z,-3.67
2023-02-09T01:09:18.961Z,-3.63
2023-02-09T01:11:46.808Z,-3.64
2023-02-09T01:14:14.426Z,-3.63
2023-02-09T01:16:42.086Z,-3.62
2023-02-09T01:19:14.673Z,-3.61
2023-02-09T01:21:42.726Z,-3.58
2023-02-09T01:24:14.865Z,-3.56
2023-02-09T01:26:43.544Z,-3.56
2023-02-09T01:29:15.145Z,-3.56
2023-02-09T01:31:45.844Z,-3.55
2023-02-09T01:34:18.142Z,-3.53
2023-02-09T01:36:48.540Z,-3.54
2023-02-09T01:39:16.704Z,-3.51
2023-02-09T01:41:44.918Z,-3.47
2023-02-09T01:44:51.149Z,-3.46
2023-02-09T01:47:20.504Z,-3.40
2023-02-09T01:49:51.783Z,-3.39
2023-02-09T01:52:24.294Z,-3.37
2023-02-09T01:54:56.682Z,-3.36
2023-02-09T01:57:32.137Z,-3.32
2023-02-09T02:00:05.677Z,-3.29
2023-02-09T02:02:43.665Z,-3.27
2023-02-09T02:05:13.056Z,-3.27
2023-02-09T02:07:47.813Z,-3.27
2023-02-09T02:10:15.926Z,-3.29
2023-02-09T02:12:44.098Z,-3.31
2023-02-09T02:15:12.320Z,-3.33
2023-02-09T02:17:56.770Z,-3.32
2023-02-09T02:21:11.433Z,-3.39
2023-02-09T02:23:49.279Z,-3.42
2023-02-09T02:26:46.459Z,-3.47
2023-02-09T02:29:31.754Z,-3.50
2023-02-09T02:32:22.953Z,-3.54
2023-02-09T02:34:58.271Z,-3.57
2023-02-09T02:37:44.666Z,-3.60
2023-02-09T02:40:43.994Z,-3.65
2023-02-09T02:43:27.656Z,-3.64
2023-02-09T02:46:03.638Z,-3.72
2023-02-09T02:48:40.671Z,-3.75
2023-02-09T02:51:15.652Z,-3.77
2023-02-09T02:53:49.659Z,-3.72
2023-02-09T02:56:45.777Z,-3.72
2023-02-09T02:59:18.304Z,-3.83
2023-02-09T03:01:54.477Z,-3.84
2023-02-09T03:04:24.837Z,-3.81
2023-02-09T03:06:56.781Z,-3.86
2023-02-09T03:09:24.579Z,-3.87
2023-02-09T03:11:58.679Z,-3.88
2023-02-09T03:14:39.760Z,-3.89
2023-02-09T03:17:19.759Z,-3.87
2023-02-09T03:19:55.276Z,-3.88
2023-02-09T03:22:30.670Z,-3.88
2023-02-09T03:25:02.726Z,-3.90
2023-02-09T03:27:34.802Z,-3.92
2023-02-09T03:30:05.189Z,-3.92
2023-02-09T03:32:37.802Z,-3.95
2023-02-09T05:53:42.855Z,-4.10
2023-02-09T05:56:11.666Z,-4.09
2023-02-09T05:58:39.767Z,-4.07
2023-02-09T06:01:33.676Z,-4.09
2023-02-09T06:04:01.772Z,-4.09
2023-02-09T06:06:29.411Z,-4.08
2023-02-09T06:08:58.596Z,-3.99
2023-02-09T06:11:26.776Z,-4.04
2023-02-09T06:13:55.268Z,-4.05
2023-02-09T06:16:23.192Z,-4.05
2023-02-09T06:18:51.253Z,-4.06
2023-02-09T06:21:20.208Z,-4.06
2023-02-09T06:23:47.887Z,-4.06
2023-02-09T06:26:18.753Z,-4.07
2023-02-09T06:28:46.782Z,-4.10
2023-02-09T06:31:15.799Z,-4.10
2023-02-09T06:33:43.517Z,-4.12
2023-02-09T06:36:12.204Z,-4.14
2023-02-09T06:39:04.692Z,-4.16
2023-02-09T06:41:58.656Z,-4.18
2023-02-09T06:44:26.331Z,-4.21
2023-02-09T06:46:54.211Z,-4.16
2023-02-09T06:49:26.451Z,-4.01
2023-02-09T06:51:55.317Z,-4.25
2023-02-09T06:54:25.669Z,-4.34
2023-02-09T06:56:55.510Z,-4.34
2023-02-09T06:59:25.693Z,-4.33
2023-02-09T07:01:56.866Z,-4.30
2023-02-09T07:04:24.682Z,-4.33
2023-02-09T07:06:52.751Z,-4.36
2023-02-09T07:09:20.697Z,-4.37
2023-02-09T07:11:48.671Z,-4.37
2023-02-09T07:14:18.479Z,-4.37
2023-02-09T07:16:46.252Z,-4.35
2023-02-09T07:19:14.133Z,-4.35
2023-02-09T07:21:45.692Z,-4.34
2023-02-09T07:27:31.066Z,-4.24
2023-02-09T07:30:01.297Z,-4.21
2023-02-09T07:32:29.440Z,-4.17
2023-02-09T07:34:57.179Z,-4.10
2023-02-09T07:37:26.788Z,-3.99
2023-02-09T07:39:54.429Z,-3.83
2023-02-09T07:42:25.779Z,-3.66
2023-02-09T07:45:00.280Z,-3.63
2023-02-09T07:47:28.217Z,-3.69
2023-02-09T07:49:56.112Z,-3.70
2023-02-09T07:52:25.679Z,-3.71
2023-02-09T07:54:53.489Z,-3.70
2023-02-09T07:57:22.656Z,-3.69
2023-02-09T07:59:52.252Z,-3.66
2023-02-09T08:02:28.713Z,-3.63
2023-02-09T08:05:00.861Z,-3.60
2023-02-09T08:07:29.603Z,-3.53
2023-02-09T08:09:57.284Z,-3.48
2023-02-09T08:12:44.657Z,-3.41
2023-02-09T08:15:13.763Z,-3.37
2023-02-09T08:17:43.782Z,-3.32
2023-02-09T08:20:17.703Z,-3.25
2023-02-09T08:23:16.752Z,-3.19
2023-02-09T08:25:54.655Z,-3.15
2023-02-09T08:28:48.467Z,-3.09
2023-02-09T08:31:18.998Z,-3.04
2023-02-09T08:33:49.673Z,-2.99
2023-02-09T08:36:18.720Z,-2.93
2023-02-09T08:38:47.989Z,-2.88
2023-02-09T08:41:17.034Z,-2.82
2023-02-09T08:43:48.954Z,-2.75
2023-02-09T08:46:18.831Z,-2.68
2023-02-09T08:48:48.149Z,-2.57
2023-02-09T08:51:17.580Z,-2.49
2023-02-09T08:53:52.295Z,-2.39
2023-02-09T08:56:25.690Z,-2.32
2023-02-09T08:58:53.346Z,-2.25
2023-02-09T09:01:21.701Z,-2.18
2023-02-09T09:03:50.765Z,-2.09
2023-02-09T09:06:19.734Z,-2.00
2023-02-09T09:08:47.389Z,-1.91
2023-02-09T09:11:15.669Z,-1.81
2023-02-09T09:13:43.382Z,-1.70
2023-02-09T09:16:16.058Z,-1.57
2023-02-09T09:18:45.374Z,-1.49
2023-02-09T09:21:15.944Z,-1.38
2023-02-09T09:23:43.787Z,-1.36
2023-02-09T09:26:13.792Z,-1.24
2023-02-09T09:28:41.521Z,-1.14
2023-02-09T09:31:09.903Z,-1.03
2023-02-09T09:33:37.816Z,-0.89
2023-02-09T09:36:07.301Z,-0.82
2023-02-09T09:38:39.829Z,-0.72
2023-02-09T09:41:19.733Z,-0.61
2023-02-09T09:43:47.700Z,-0.58
2023-02-09T09:46:20.845Z,-0.50
2023-02-09T09:48:51.651Z,-0.39
2023-02-09T09:51:28.715Z,-0.27
2023-02-09T09:54:00.318Z,-0.18
2023-02-09T09:56:30.077Z,-0.07
2023-02-09T09:58:59.861Z,0.12
2023-02-09T10:01:54.707Z,0.35
2023-02-09T10:04:22.713Z,0.47
2023-02-09T10:07:00.679Z,0.46
2023-02-09T10:09:40.442Z,0.64
2023-02-09T10:12:33.393Z,0.61
2023-02-09T10:15:16.582Z,0.66
2023-02-09T10:17:48.263Z,0.75
2023-02-09T10:20:17.774Z,0.89
2023-02-09T10:22:46.246Z,0.95
2023-02-09T10:28:15.333Z,1.18
2023-02-09T10:30:47.973Z,1.22
2023-02-09T10:33:20.426Z,1.30
2023-02-09T10:35:52.047Z,1.42
2023-02-09T10:38:22.432Z,1.49
2023-02-09T10:40:51.544Z,1.60
2023-02-09T10:43:24.947Z,1.63
2023-02-09T10:45:56.594Z,1.71
2023-02-09T10:48:26.547Z,1.82
2023-02-09T10:50:57.519Z,1.86
2023-02-09T10:53:30.427Z,1.98
2023-02-09T10:56:04.537Z,1.96
2023-02-09T11:01:32.919Z,2.04
2023-02-09T11:04:03.566Z,2.09
2023-02-09T11:09:36.486Z,2.24
2023-02-09T11:12:14.453Z,2.22
2023-02-09T11:14:44.452Z,2.28
2023-02-09T11:17:18.484Z,2.37
2023-02-09T11:20:04.514Z,2.39
2023-02-09T11:22:55.430Z,2.42
2023-02-09T11:25:27.531Z,2.51
2023-02-09T11:28:19.570Z,2.57
2023-02-09T11:31:24.524Z,2.58
2023-02-09T11:34:00.332Z,2.62
2023-02-09T11:36:46.936Z,2.62
2023-02-09T11:39:22.421Z,2.63
2023-02-09T11:42:38.062Z,2.71
2023-02-09T11:45:10.288Z,2.73
2023-02-09T11:47:43.547Z,2.72
2023-02-09T11:50:21.617Z,2.77
2023-02-09T11:52:53.640Z,2.89
2023-02-09T11:55:29.240Z,2.95
2023-02-09T11:58:11.509Z,3.03
2023-02-09T12:00:54.810Z,3.01
2023-02-09T12:03:28.426Z,3.02
2023-02-09T12:05:57.187Z,3.04
2023-02-09T12:08:53.783Z,3.07
2023-02-09T12:11:34.347Z,3.07
2023-02-09T12:14:24.641Z,3.17
2023-02-09T12:16:59.892Z,3.18
2023-02-09T12:19:36.449Z,3.33
2023-02-09T12:22:52.530Z,3.28
2023-02-09T12:25:50.242Z,3.31
2023-02-09T12:28:39.752Z,3.29
2023-02-09T12:31:12.519Z,3.38
2023-02-09T12:34:02.518Z,3.37
2023-02-09T12:36:33.425Z,3.43
2023-02-09T12:39:05.498Z,3.39
2023-02-09T12:42:07.449Z,3.43
2023-02-09T12:44:40.077Z,3.47
2023-02-09T12:47:42.662Z,3.63
2023-02-09T12:50:25.423Z,3.60
2023-02-09T12:53:34.814Z,3.55
2023-02-09T12:56:05.439Z,3.61
2023-02-09T12:58:54.148Z,3.68
2023-02-09T13:01:24.745Z,3.71
2023-02-09T13:03:56.945Z,3.86
2023-02-09T13:06:34.343Z,3.92
2023-02-09T13:09:05.964Z,3.82
2023-02-09T13:11:45.431Z,3.78
2023-02-09T13:14:15.819Z,3.80
2023-02-09T13:16:56.463Z,3.81
2023-02-09T13:20:00.881Z,3.85
2023-02-09T13:22:34.336Z,3.88
2023-02-09T13:25:14.689Z,3.89
2023-02-09T13:27:47.890Z,3.88
2023-02-09T13:30:27.470Z,3.95
2023-02-09T13:33:04.427Z,3.96
2023-02-09T13:35:35.520Z,3.98
2023-02-09T13:38:16.634Z,4.04
2023-02-09T13:40:50.641Z,4.03
2023-02-09T13:43:31.518Z,4.06
2023-02-09T13:46:02.656Z,4.10
2023-02-09T13:48:36.576Z,4.12
2023-02-09T13:51:16.475Z,4.14
2023-02-09T13:53:57.204Z,4.14
2023-02-09T13:56:27.034Z,4.19
2023-02-09T13:58:56.436Z,4.16
2023-02-09T14:01:29.483Z,4.19
2023-02-09T14:04:03.991Z,4.24
2023-02-09T14:06:36.729Z,4.27
2023-02-09T14:09:14.257Z,4.24
2023-02-09T14:11:51.172Z,4.28
2023-02-09T14:14:23.421Z,4.26
2023-02-09T14:17:24.392Z,4.23
2023-02-09T14:19:53.877Z,4.22
2023-02-09T14:22:29.917Z,4.23
2023-02-09T14:24:57.856Z,4.31
2023-02-09T14:27:32.817Z,4.23
2023-02-09T14:30:01.254Z,4.23
2023-02-09T14:32:34.532Z,4.22
2023-02-09T14:35:17.479Z,4.18
2023-02-09T14:37:46.555Z,4.16
2023-02-09T14:40:24.314Z,4.16
2023-02-09T14:43:00.540Z,4.16
2023-02-09T14:45:31.474Z,4.13
2023-02-09T14:48:00.522Z,4.10
2023-02-09T14:50:29.119Z,4.10
2023-02-09T14:53:08.890Z,4.07
2023-02-09T14:55:40.400Z,4.05
2023-02-09T14:58:18.991Z,4.11
2023-02-09T15:00:50.913Z,4.05
2023-02-09T15:03:19.598Z,4.02
2023-02-09T15:05:51.047Z,3.99
2023-02-09T15:08:21.894Z,3.98
2023-02-09T15:10:53.306Z,4.02
2023-02-09T15:13:23.320Z,3.95
2023-02-09T15:15:52.567Z,3.91
2023-02-09T15:18:23.418Z,3.89
2023-02-09T15:20:51.536Z,3.89
2023-02-09T15:23:19.338Z,3.86
2023-02-09T15:25:48.665Z,3.85
2023-02-09T15:28:25.475Z,3.80
2023-02-09T15:30:55.483Z,3.78
2023-02-09T15:33:25.656Z,3.74
2023-02-09T15:35:53.794Z,3.71
2023-02-09T15:38:27.082Z,3.68
2023-02-09T15:41:12.428Z,3.64
2023-02-09T15:43:58.025Z,3.59
2023-02-09T15:46:44.814Z,3.56
2023-02-09T15:49:12.593Z,3.53
2023-02-09T15:51:41.633Z,3.48
2023-02-09T15:54:19.258Z,3.43
2023-02-09T15:56:47.407Z,3.40
2023-02-09T15:59:20.142Z,3.34
2023-02-09T16:01:50.595Z,3.27
2023-02-09T16:04:19.590Z,3.22
2023-02-09T16:06:50.495Z,3.17
2023-02-09T16:09:20.470Z,3.14
2023-02-09T16:11:48.339Z,3.08
2023-02-09T16:14:41.971Z,3.01
2023-02-09T16:17:12.460Z,2.95
2023-02-09T16:19:40.715Z,2.90
2023-02-09T16:22:12.540Z,2.87
2023-02-09T16:24:42.715Z,2.80
2023-02-09T16:27:16.563Z,2.74
2023-02-09T16:30:16.589Z,2.68
2023-02-09T16:32:47.525Z,2.62
2023-02-09T16:35:17.311Z,2.57
2023-02-09T16:37:49.793Z,2.54
2023-02-09T16:40:27.648Z,2.52
2023-02-09T16:42:57.530Z,2.49
2023-02-09T16:45:26.738Z,2.48
2023-02-09T16:47:59.125Z,2.46
2023-02-09T16:50:32.870Z,2.47
2023-02-09T16:53:03.587Z,2.46
2023-02-09T16:55:33.436Z,2.38
2023-02-09T16:58:07.426Z,2.28
2023-02-09T17:01:01.629Z,2.21
2023-02-09T17:03:35.433Z,2.11
2023-02-09T17:06:04.239Z,2.07
2023-02-09T17:08:34.715Z,2.06
2023-02-09T17:11:04.429Z,1.97
2023-02-09T17:13:32.439Z,1.90
2023-02-09T17:16:02.428Z,1.85
2023-02-09T17:18:34.598Z,1.80
2023-02-09T17:21:04.782Z,1.74
2023-02-09T17:23:32.997Z,1.71
2023-02-09T17:26:00.624Z,1.68
2023-02-09T17:28:29.792Z,1.67
2023-02-09T17:30:59.818Z,1.65
2023-02-09T17:33:30.830Z,1.67
2023-02-09T17:38:49.065Z,1.58
2023-02-09T17:41:19.515Z,1.49
2023-02-09T17:43:47.776Z,1.46
2023-02-09T17:46:18.715Z,1.44
2023-02-09T17:48:47.152Z,1.45
2023-02-09T17:51:20.896Z,1.45
2023-02-09T17:53:49.103Z,1.46
2023-02-09T17:56:17.000Z,1.49
2023-02-09T17:58:45.273Z,1.50
2023-02-09T18:01:25.291Z,1.53
2023-02-09T18:03:54.431Z,1.57
2023-02-09T18:06:33.375Z,1.60
2023-02-09T18:09:01.544Z,1.63
2023-02-09T18:11:41.483Z,1.68
2023-02-09T18:14:14.540Z,1.72
2023-02-09T18:17:08.802Z,1.73
2023-02-09T18:19:37.535Z,1.77
2023-02-09T18:22:06.973Z,1.79
2023-02-09T18:24:35.711Z,1.81
2023-02-09T18:27:03.929Z,1.85
2023-02-09T18:29:31.645Z,1.88
2023-02-09T18:32:01.403Z,1.91
2023-02-09T18:34:29.847Z,1.94
2023-02-09T18:36:58.546Z,1.91
2023-02-09T18:39:27.570Z,1.93
2023-02-09T18:41:55.463Z,1.93
2023-02-09T18:44:28.336Z,1.93
2023-02-09T18:46:56.190Z,1.98
2023-02-09T18:49:23.855Z,1.94
2023-02-09T18:51:52.075Z,1.95
2023-02-09T18:54:20.030Z,1.97
2023-02-09T18:56:49.188Z,2.05
2023-02-09T18:59:17.638Z,2.05
2023-02-09T19:01:47.303Z,2.09
2023-02-09T19:04:15.448Z,2.13
2023-02-09T19:06:43.593Z,2.16
2023-02-09T19:09:13.193Z,2.17
2023-02-09T19:11:40.851Z,2.21
2023-02-09T19:14:28.274Z,2.25
2023-02-09T19:16:56.058Z,2.27
2023-02-09T19:19:23.825Z,2.29
2023-02-09T19:21:52.289Z,2.30
2023-02-09T19:24:20.316Z,2.33
2023-02-09T19:26:48.041Z,2.34
2023-02-09T19:29:17.329Z,2.37
2023-02-09T19:31:46.273Z,2.39
2023-02-09T19:34:14.533Z,2.43
2023-02-09T19:36:42.219Z,2.45
2023-02-09T19:39:11.514Z,2.48
2023-02-09T19:41:39.348Z,2.52
2023-02-09T19:44:07.523Z,2.52
2023-02-09T19:46:41.185Z,2.54
2023-02-09T19:49:09.537Z,2.55
2023-02-09T19:51:37.795Z,2.54
2023-02-09T19:54:06.307Z,2.55
2023-02-09T19:56:34.149Z,2.55
2023-02-09T19:59:04.137Z,2.55
2023-02-09T20:01:32.407Z,2.55
2023-02-09T20:04:02.434Z,2.57
2023-02-09T20:06:31.098Z,2.57
2023-02-09T20:08:59.917Z,2.58
2023-02-09T20:11:27.970Z,2.60
2023-02-09T20:13:55.919Z,2.58
2023-02-09T20:16:25.814Z,2.60
2023-02-09T20:18:54.713Z,2.60
2023-02-09T20:21:26.235Z,2.60
2023-02-09T20:23:58.259Z,2.64
2023-02-09T20:26:51.288Z,2.63
2023-02-09T20:29:19.399Z,2.65
2023-02-09T20:31:47.041Z,2.66
2023-02-09T20:34:15.884Z,2.70
2023-02-09T20:36:47.953Z,2.77
2023-02-09T20:39:17.648Z,2.76
2023-02-09T20:42:06.545Z,2.75
2023-02-09T20:44:53.361Z,2.80
2023-02-09T20:47:21.263Z,2.82
2023-02-09T20:49:51.226Z,2.84
2023-02-09T20:52:20.490Z,2.84
2023-02-09T20:54:48.214Z,2.84
2023-02-09T20:57:15.937Z,2.87
2023-02-09T20:59:44.500Z,2.87
2023-02-09T21:02:12.955Z,2.89
2023-02-09T21:04:40.957Z,2.90
2023-02-09T21:07:09.603Z,2.92
2023-02-09T21:09:41.799Z,2.92
2023-02-09T21:12:10.428Z,2.96
2023-02-09T21:14:42.139Z,2.97
2023-02-09T21:17:11.575Z,3.00
2023-02-09T21:19:39.627Z,2.98
2023-02-09T21:22:08.534Z,3.01
2023-02-09T21:24:39.191Z,2.99
2023-02-09T21:27:07.524Z,3.02
2023-02-09T21:29:35.859Z,3.02
2023-02-09T21:32:04.564Z,3.03
2023-02-09T21:34:34.448Z,3.03
2023-02-09T21:37:03.517Z,3.07
2023-02-09T21:39:31.472Z,3.06
2023-02-09T21:42:18.224Z,3.11
2023-02-09T21:44:45.843Z,3.10
2023-02-09T21:47:13.536Z,3.10
2023-02-09T21:49:41.247Z,3.14
2023-02-09T21:52:09.714Z,3.13
2023-02-09T21:54:37.405Z,3.11
2023-02-09T21:57:07.515Z,3.12
2023-02-09T21:59:35.446Z,3.14
2023-02-09T22:02:03.244Z,3.15
2023-02-09T22:04:30.973Z,3.15
2023-02-09T22:06:58.667Z,3.16
2023-02-09T22:09:26.358Z,3.16
2023-02-09T22:11:54.613Z,3.18
2023-02-09T22:14:23.664Z,3.20
2023-02-09T22:16:51.418Z,3.19
2023-02-09T22:19:19.837Z,3.22
2023-02-09T22:21:47.545Z,3.23
2023-02-09T22:24:16.634Z,3.23
2023-02-09T22:26:46.878Z,3.25
2023-02-09T22:29:16.027Z,3.27
2023-02-09T22:31:45.453Z,3.25
2023-02-09T22:34:14.433Z,3.25
2023-02-09T22:36:43.169Z,3.24
2023-02-09T22:39:11.011Z,3.25
2023-02-09T22:41:39.394Z,3.25
2023-02-09T22:44:11.090Z,3.26
2023-02-09T22:46:40.506Z,3.23
2023-02-09T22:49:13.034Z,3.25
2023-02-09T22:51:40.926Z,3.23
2023-02-09T22:54:10.881Z,3.24
2023-02-09T22:56:39.530Z,3.21
2023-02-09T22:59:08.332Z,3.21
2023-02-09T23:01:36.038Z,3.19
2023-02-09T23:04:03.711Z,3.19
2023-02-09T23:06:32.849Z,3.19
2023-02-09T23:09:02.331Z,3.17
2023-02-09T23:11:31.459Z,3.13
2023-02-09T23:14:09.192Z,3.11
2023-02-09T23:16:38.888Z,3.06
2023-02-09T23:19:10.908Z,3.06
2023-02-09T23:21:44.014Z,3.05
2023-02-09T23:24:12.747Z,3.06
2023-02-09T23:26:40.803Z,3.07
2023-02-09T23:29:11.429Z,3.06
2023-02-09T23:31:39.994Z,3.09
2023-02-09T23:34:09.423Z,3.08
2023-02-09T23:36:37.160Z,3.09
2023-02-09T23:39:07.694Z,3.09
2023-02-09T23:41:36.433Z,3.11
2023-02-09T23:44:04.479Z,3.12
2023-02-09T23:46:32.575Z,3.14
2023-02-09T23:49:01.108Z,3.15
2023-02-09T23:51:30.656Z,3.17
2023-02-09T23:53:59.983Z,3.18
2023-02-09T23:56:31.725Z,3.19
2023-02-09T23:59:01.515Z,3.21
